Latest Coastal Weather Observations for Flinders Island Airport

IDT60701

Issued at 11:42 am EDT Monday 23 October 2017 (issued every 10 minutes, with the page automatically refreshed every 10 minutes)

About coastal observations | Map of coastal stations | Coastal observations for TAS | Marine services | Other Formats
Station Details ID: 099005 Name: FLINDERS ISLAND AIRPORT Lat: -40.09 Lon: 148.00 Height: 9.0 m
Data from the previous 72 hours. | See also: Recent months at Flinders Island Airport
Date/Time
EDT
Temp
°C
Wind Pressure Rain since
9am
mm
Weather Cloud Vis
km
Sea
Height
m
Swell
Dir  Spd
kts
Gust
kts
hPa Trend Height
m
Period
s
Dir
23/11:30am 13.6 WNW 13 16 1016.2 - 0.0 - Cloudy 10 - - - -
23/11:00am 14.0 W 12 15 1016.0 - 0.0 - Cloudy 10 - - - -
23/10:30am 13.5 W 10 14 1015.9 - 0.0 - Cloudy 10 - - - -
23/10:00am 13.3 WNW 12 16 1016.1 - 0.0 - Cloudy 10 - - - -
23/09:30am 12.8 WNW 12 16 1016.0 - 0.0 - Cloudy 10 - - - -
23/09:00am 13.1 WNW 13 16 1015.7 - 0.0 - Cloudy 10 - - - -
23/08:30am 12.9 W 13 16 1015.6 - 0.0 - Cloudy 10 - - - -
23/08:00am 12.6 W 12 17 1015.3 - 0.0 - Cloudy 10 - - - -
23/07:30am 12.3 W 13 17 1015.1 - 0.0 - Cloudy 10 - - - -
23/07:00am 12.3 WNW 11 15 1014.8 - 0.0 - Cloudy 10 - - - -
23/06:30am 12.3 WNW 9 14 1014.4 - 0.0 - Cloudy 10 - - - -
23/06:00am 12.5 W 13 15 1014.3 - 0.0 - Mostly cloudy 10 - - - -
23/05:30am 12.4 W 11 14 1014.2 - 0.0 - Cloudy 10 - - - -
23/05:00am 12.6 W 11 15 1014.2 - 0.0 - Cloudy 10 - - - -
23/04:30am 12.4 WNW 10 13 1013.9 - 0.0 - Cloudy 10 - - - -
23/04:00am 12.4 WNW 9 12 1013.8 - 0.0 - Cloudy 10 - - - -
23/03:30am 12.2 WNW 10 14 1013.8 - 0.0 - Partly cloudy 10 - - - -
23/03:24am 12.2 WNW 9 12 1013.7 - 0.0 - Partly cloudy 10 - - - -
23/03:00am 12.1 WNW 8 10 1013.8 - 0.0 - Mostly clear 10 - - - -
23/02:30am 12.2 WNW 8 10 1013.9 - 0.0 - Partly cloudy 10 - - - -
23/02:00am 12.3 W 9 12 1014.2 - 0.0 - Partly cloudy 10 - - - -
23/01:30am 12.1 WNW 8 11 1014.4 - 0.0 - Partly cloudy 10 - - - -
23/01:00am 12.0 WNW 7 10 1014.5 - 0.0 - Partly cloudy 10 - - - -
23/12:52am 12.0 WNW 8 10 1014.5 - 0.0 - Partly cloudy 10 - - - -
23/12:30am 12.2 WNW 7 9 1014.7 - 0.0 - Partly cloudy 10 - - - -
23/12:15am 12.3 WNW 7 9 1014.8 - 0.0 - Partly cloudy 10 - - - -
23/12:00am 12.2 WNW 7 8 1014.8 - 0.0 - Mostly clear 10 - - - -
 
Date/Time
EDT
Temp
°C
Wind Pressure Rain since
9am
mm
Weather Cloud Vis
km
Sea
Height
m
Swell
Dir  Spd
kts
Gust
kts
hPa Trend Height
m
Period
s
Dir
22/11:30pm 12.4 NW 7 9 1014.6 - 0.0 - - 10 - - - -
22/11:16pm 12.6 WNW 8 10 1014.7 - 0.0 - Partly cloudy 10 - - - -
22/11:00pm 12.7 WNW 8 13 1014.7 - 0.0 - Partly cloudy 10 - - - -
22/10:40pm 12.8 WNW 9 14 1014.8 - 0.0 - Partly cloudy 10 - - - -
22/10:30pm 12.7 WNW 10 14 1014.8 - 0.0 - Partly cloudy 10 - - - -
22/10:00pm 12.6 WNW 8 10 1014.7 - 0.0 - Partly cloudy 10 - - - -
22/09:30pm 12.7 WNW 9 12 1014.6 - 0.0 - - 10 - - - -
22/09:00pm 12.7 WNW 9 12 1014.6 - 0.0 - Mostly clear 10 - - - -
22/08:30pm 12.6 WNW 8 10 1014.3 - 0.0 - Partly cloudy 10 - - - -
22/08:00pm 13.0 WNW 8 11 1014.0 - 0.0 - - 10 - - - -
22/07:30pm 13.5 WNW 9 13 1013.7 - 0.0 - - 10 - - - -
22/07:00pm 14.2 WNW 12 15 1013.5 - 0.0 - - 10 - - - -
22/06:30pm 14.6 WNW 12 16 1013.2 - 0.0 - - 10 - - - -
22/06:00pm 15.0 WNW 11 14 1012.8 - 0.0 - - 10 - - - -
22/05:30pm 15.4 W 13 17 1012.8 - 0.0 - - 10 - - - -
22/05:00pm 15.4 W 15 18 1012.9 - 0.0 - - 10 - - - -
22/04:30pm 15.4 W 14 17 1013.0 - 0.0 - - 10 - - - -
22/04:00pm 15.6 W 14 17 1013.1 - 0.0 - - 10 - - - -
22/03:30pm 15.3 W 9 12 1013.2 - 0.0 - Partly cloudy 10 - - - -
22/03:00pm 15.2 W 9 11 1013.3 - 0.0 - - 10 - - - -
22/02:30pm 15.5 W 9 11 1013.4 - 0.0 - Partly cloudy 10 - - - -
22/02:00pm 15.1 WSW 9 11 1013.5 - 0.0 - Partly cloudy 10 - - - -
22/01:49pm 15.0 WSW 10 13 1013.7 - 0.0 - Partly cloudy 10 - - - -
22/01:30pm 14.9 WSW 10 11 1013.6 - 0.0 - Partly cloudy 10 - - - -
22/01:00pm 15.3 WSW 10 13 1013.6 - 0.0 - Partly cloudy 10 - - - -
22/12:30pm 15.2 W 9 11 1013.6 - 0.0 - Partly cloudy 10 - - - -
22/12:00pm 15.1 WSW 11 15 1013.8 - 0.0 - Mostly cloudy 10 - - - -
22/11:30am 15.1 WSW 13 16 1013.9 - 0.0 - Partly cloudy 10 - - - -
22/11:00am 15.0 WSW 10 14 1013.9 - 0.0 - Partly cloudy 10 - - - -
22/10:30am 14.2 WSW 12 16 1014.0 - 0.0 - Partly cloudy 10 - - - -
22/10:00am 14.5 WSW 12 15 1014.0 - 0.0 - Cloudy 10 - - - -
22/09:30am 13.9 WSW 12 15 1013.9 - 0.0 - Partly cloudy 10 - - - -
22/09:09am 13.7 WSW 15 19 1013.8 - 0.0 - Partly cloudy 10 - - - -
22/09:00am 13.7 WSW 16 19 1013.7 - 0.0 - Mostly cloudy 10 - - - -
22/08:30am 13.9 WSW 19 21 1013.4 - 0.0 - Partly cloudy 10 - - - -
22/08:05am 13.1 WSW 16 20 1013.3 - 0.0 - Partly cloudy 10 - - - -
22/08:00am 13.2 WSW 16 19 1013.3 - 0.0 - Partly cloudy 10 - - - -
22/07:30am 12.7 WSW 15 18 1013.1 - 0.0 - Partly cloudy 10 - - - -
22/07:00am 12.6 WSW 14 17 1013.1 - 0.0 - Partly cloudy 10 - - - -
22/06:30am 12.5 WSW 19 23 1013.0 - 0.0 - Partly cloudy 10 - - - -
22/06:00am 12.3 W 19 22 1012.6 - 0.0 - Cloudy 10 - - - -
22/05:54am 12.3 W 20 23 1012.6 - 0.0 - Partly cloudy 10 - - - -
22/05:30am 12.3 W 21 28 1012.5 - 0.0 - Partly cloudy 10 - - - -
22/05:00am 12.4 W 22 27 1012.5 - 0.0 - Cloudy 10 - - - -
22/04:30am 12.3 W 23 28 1012.5 - 0.0 - Cloudy 10 - - - -
22/04:00am 12.3 W 22 28 1012.4 - 0.0 - Partly cloudy 10 - - - -
22/03:30am 12.2 W 22 27 1013.0 - 0.0 - Partly cloudy 10 - - - -
22/03:00am 12.3 W 25 30 1013.3 - 0.0 - Cloudy 10 - - - -
22/02:30am 12.3 W 27 31 1013.2 - 0.0 - - 10 - - - -
22/02:00am 12.2 W 23 29 1013.5 - 0.0 - - 10 - - - -
22/01:30am 12.1 W 22 27 1013.9 - 0.0 - Partly cloudy 10 - - - -
22/01:00am 12.4 W 23 28 1014.5 - 0.0 - Partly cloudy 10 - - - -
22/12:30am 12.3 W 25 31 1014.7 - 0.0 - Partly cloudy 10 - - - -
22/12:00am 12.2 W 22 28 1014.7 - 0.0 - - 10 - - - -
 
Date/Time
EDT
Temp
°C
Wind Pressure Rain since
9am
mm
Weather Cloud Vis
km
Sea
Height
m
Swell
Dir  Spd
kts
Gust
kts
hPa Trend Height
m
Period
s
Dir
21/11:30pm 12.3 W 24 29 1014.9 - 0.0 - - 10 - - - -
21/11:00pm 12.2 W 26 30 1015.1 - 0.0 - - 10 - - - -
21/10:30pm 12.3 W 24 32 1015.4 - 0.0 - Partly cloudy 10 - - - -
21/10:23pm 12.3 W 25 30 1015.5 - 0.0 - Partly cloudy 10 - - - -
21/10:00pm 12.4 W 24 30 1015.7 - 0.0 - Partly cloudy 10 - - - -
21/09:44pm 12.4 W 25 30 1015.8 - 0.0 - Partly cloudy 10 - - - -
21/09:30pm 12.5 W 25 31 1015.9 - 0.0 - Partly cloudy 10 - - - -
21/09:00pm 12.5 W 26 31 1015.8 - 0.0 - - 10 - - - -
21/08:30pm 12.5 W 23 30 1015.7 - 0.0 - Partly cloudy 10 - - - -
21/08:00pm 12.5 W 23 29 1015.8 - 0.0 - Partly cloudy 10 - - - -
21/07:30pm 12.6 W 24 29 1015.9 - 0.0 - - 10 - - - -
21/07:00pm 13.1 W 24 32 1015.9 - 0.0 - Partly cloudy 10 - - - -
21/06:30pm 13.4 W 23 29 1016.0 - 0.0 - Partly cloudy 10 - - - -
21/06:13pm 13.6 W 23 28 1016.1 - 0.0 - Partly cloudy 10 - - - -
21/06:00pm 13.8 W 23 28 1016.2 - 0.0 - Partly cloudy 10 - - - -
21/05:30pm 14.1 W 22 27 1016.4 - 0.0 - Partly cloudy 10 - - - -
21/05:00pm 13.9 W 22 27 1016.7 - 0.0 - Cloudy 10 - - - -
21/04:30pm 14.2 W 19 25 1017.2 - 0.0 - Partly cloudy 10 - - - -
21/04:00pm 14.0 W 22 28 1017.6 - 0.0 - Partly cloudy 10 - - - -
21/03:36pm 14.7 W 20 26 1017.8 - 0.0 - Partly cloudy 10 - - - -
21/03:30pm 14.8 W 20 26 1017.8 - 0.0 - Partly cloudy 10 - - - -
21/03:00pm 14.4 W 22 26 1018.0 - 0.0 - Mostly cloudy 10 - - - -
21/02:30pm 14.1 W 21 26 1018.4 - 0.0 - Partly cloudy 10 - - - -
21/02:00pm 13.8 W 21 25 1018.9 - 0.0 - Partly cloudy 10 - - - -
21/01:30pm 13.9 W 21 26 1019.2 - 0.0 - Partly cloudy 10 - - - -
21/01:00pm 13.8 W 21 26 1019.4 - 0.0 - Partly cloudy 10 - - - -
21/12:30pm 14.6 W 21 25 1019.6 - 0.0 - Partly cloudy 10 - - - -
21/12:00pm 14.1 W 23 28 1019.8 - 0.0 - Mostly clear 10 - - - -
21/11:30am 14.1 WSW 22 27 1020.2 - 0.0 - - 10 - - - -
21/11:00am 13.9 WSW 21 24 1020.4 - 0.0 - Partly cloudy 10 - - - -
21/10:30am 13.6 WSW 21 27 1020.6 - 0.0 - Partly cloudy 10 - - - -
21/10:00am 13.0 WSW 21 25 1020.6 - 0.0 - Partly cloudy 10 - - - -
21/09:30am 13.1 WSW 21 26 1020.7 - 0.0 - Partly cloudy 10 - - - -
21/09:00am 12.9 WSW 20 25 1021.0 - 0.0 - Partly cloudy 10 - - - -
21/08:30am 12.4 WSW 20 25 1021.1 - 0.0 - Partly cloudy 10 - - - -
21/08:00am 11.7 WSW 20 23 1021.0 - 0.0 - Partly cloudy 10 - - - -
21/07:30am 11.6 WSW 22 27 1021.1 - 0.0 - Partly cloudy 10 - - - -
21/07:00am 11.4 WSW 21 26 1021.1 - 0.0 - Partly cloudy 10 - - - -
21/06:30am 11.5 WSW 22 27 1021.3 - 0.0 - Partly cloudy 10 - - - -
21/06:00am 11.4 WSW 22 27 1021.3 - 0.0 - Cloudy 10 - - - -
21/05:30am 11.3 WSW 22 27 1021.4 - 0.0 - Partly cloudy 10 - - - -
21/05:00am 11.3 WSW 23 27 1021.4 - 0.0 - Partly cloudy 10 - - - -
21/04:30am 11.2 WSW 22 27 1021.5 - 0.0 - Partly cloudy 10 - - - -
21/04:00am 11.3 WSW 22 26 1021.5 - 0.0 - Partly cloudy 10 - - - -
21/03:30am 11.2 WSW 21 25 1021.9 - 0.0 - Partly cloudy 10 - - - -
21/03:00am 11.2 WSW 20 24 1022.1 - 0.0 - Cloudy 10 - - - -
21/02:30am 11.2 WSW 20 23 1022.3 - 0.0 - - 10 - - - -
21/02:00am 11.1 W 19 22 1022.6 - 0.0 - Partly cloudy 10 - - - -
21/01:30am 11.2 WSW 18 21 1023.0 - 0.0 - Partly cloudy 10 - - - -
21/01:00am 11.2 WSW 19 22 1023.3 - 0.0 - - 10 - - - -
21/12:30am 11.1 WSW 16 19 1024.0 - 0.0 - - 10 - - - -
21/12:00am 11.5 WSW 17 21 1024.0 - 0.0 - Mostly clear 10 - - - -
 
Date/Time
EDT
Temp
°C
Wind Pressure Rain since
9am
mm
Weather Cloud Vis
km
Sea
Height
m
Swell
Dir  Spd
kts
Gust
kts
hPa Trend Height
m
Period
s
Dir
20/11:30pm 11.6 WSW 17 20 1024.1 - 0.0 - - 10 - - - -
20/11:00pm 11.7 WSW 15 19 1024.3 - 0.0 - - 10 - - - -
20/10:30pm 11.9 WSW 17 21 1024.3 - 0.0 - - 10 - - - -
20/10:00pm 12.1 WSW 18 22 1024.2 - 0.0 - - 10 - - - -
20/09:30pm 12.4 WSW 19 23 1024.2 - 0.0 - - 10 - - - -
20/09:00pm 12.7 WSW 21 26 1024.1 - 0.0 - - 10 - - - -
20/08:30pm 12.6 WSW 22 28 1023.7 - 0.0 - - 10 - - - -
20/08:00pm 12.7 WSW 21 27 1023.6 - 0.0 - - 10 - - - -
20/07:30pm 12.9 WSW 21 27 1023.3 - 0.0 - - 10 - - - -
20/07:00pm 13.1 WSW 22 28 1023.1 - 0.0 - - 10 - - - -
20/06:30pm 13.6 W 22 29 1022.9 - 0.0 - - 10 - - - -
20/06:00pm 14.1 WSW 24 29 1022.9 - 0.0 - - 10 - - - -
20/05:30pm 14.4 W 24 29 1022.8 - 0.0 - - 10 - - - -
20/05:00pm 14.3 W 24 28 1022.7 - 0.0 - - 10 - - - -
20/04:30pm 14.5 WSW 24 29 1022.8 - 0.0 - - 10 - - - -
20/04:00pm 14.4 W 23 29 1022.9 - 0.0 - - 10 - - - -
20/03:30pm 14.7 W 24 28 1022.9 - 0.0 - - 10 - - - -
20/03:00pm 14.9 W 25 29 1022.9 - 0.0 - - 10 - - - -
20/02:30pm 15.2 WSW 25 29 1023.1 - 0.0 - - 10 - - - -
20/02:00pm 14.9 WSW 24 28 1023.2 - 0.0 - - 10 - - - -
20/01:30pm 14.5 WSW 23 29 1023.1 - 0.0 - - 10 - - - -
20/01:00pm 14.6 W 25 29 1023.2 - 0.0 - - 10 - - - -
20/12:30pm 14.3 WSW 24 29 1023.0 - 0.0 - - 10 - - - -
20/12:00pm 14.6 WSW 26 32 1023.2 - 0.0 - - 10 - - - -

Other Formats:

Comma delimited format used in spreadsheet applications
http://www.bom.gov.au/fwo/IDT60701/IDT60701.94980.axf

JavaScript Object Notation format (JSON) in row-major order
http://www.bom.gov.au/fwo/IDT60701/IDT60701.94980.json